sensor_id;sensor_type;location;lat;lon;timestamp;temperature;humidity
23755;DHT22;12057;52.042;6.830;2022-10-04T00:03:43;11.50;99.90
23755;DHT22;12057;52.042;6.830;2022-10-04T00:08:54;11.50;99.90
23755;DHT22;12057;52.042;6.830;2022-10-04T00:14:20;11.50;99.90
23755;DHT22;12057;52.042;6.830;2022-10-04T00:19:40;11.50;99.90
23755;DHT22;12057;52.042;6.830;2022-10-04T00:25:13;11.60;99.90
23755;DHT22;12057;52.042;6.830;2022-10-04T00:30:22;11.60;99.90
23755;DHT22;12057;52.042;6.830;2022-10-04T00:40:34;11.60;99.90
23755;DHT22;12057;52.042;6.830;2022-10-04T00:45:47;11.60;99.90
23755;DHT22;12057;52.042;6.830;2022-10-04T00:56:40;11.60;99.90
23755;DHT22;12057;52.042;6.830;2022-10-04T01:01:43;11.60;99.90
23755;DHT22;12057;52.042;6.830;2022-10-04T01:06:47;11.70;99.90
23755;DHT22;12057;52.042;6.830;2022-10-04T01:11:57;11.70;99.90
23755;DHT22;12057;52.042;6.830;2022-10-04T01:16:59;11.70;99.90
23755;DHT22;12057;52.042;6.830;2022-10-04T01:27:43;11.70;99.90
23755;DHT22;12057;52.042;6.830;2022-10-04T01:32:44;11.70;99.90
23755;DHT22;12057;52.042;6.830;2022-10-04T01:37:45;11.70;99.90
23755;DHT22;12057;52.042;6.830;2022-10-04T01:42:50;11.70;99.90
23755;DHT22;12057;52.042;6.830;2022-10-04T01:47:57;11.70;99.90
23755;DHT22;12057;52.042;6.830;2022-10-04T01:53:23;11.70;99.90
23755;DHT22;12057;52.042;6.830;2022-10-04T01:58:26;11.80;99.90
23755;DHT22;12057;52.042;6.830;2022-10-04T02:03:34;11.80;99.90
23755;DHT22;12057;52.042;6.830;2022-10-04T02:08:40;11.80;99.90
23755;DHT22;12057;52.042;6.830;2022-10-04T02:13:47;11.80;99.90
23755;DHT22;12057;52.042;6.830;2022-10-04T02:18:50;11.80;99.90
23755;DHT22;12057;52.042;6.830;2022-10-04T02:23:51;11.80;99.90
23755;DHT22;12057;52.042;6.830;2022-10-04T02:28:52;11.80;99.90
23755;DHT22;12057;52.042;6.830;2022-10-04T02:33:56;11.70;99.90
23755;DHT22;12057;52.042;6.830;2022-10-04T02:44:18;11.70;99.90
23755;DHT22;12057;52.042;6.830;2022-10-04T02:49:27;11.60;99.90
23755;DHT22;12057;52.042;6.830;2022-10-04T02:54:48;11.50;99.90
23755;DHT22;12057;52.042;6.830;2022-10-04T03:00:08;11.40;99.90
23755;DHT22;12057;52.042;6.830;2022-10-04T03:05:11;11.30;99.90
23755;DHT22;12057;52.042;6.830;2022-10-04T03:10:14;11.30;99.90
23755;DHT22;12057;52.042;6.830;2022-10-04T03:15:15;11.20;99.90
23755;DHT22;12057;52.042;6.830;2022-10-04T03:20:19;11.10;99.90
23755;DHT22;12057;52.042;6.830;2022-10-04T03:25:56;11.00;99.90
23755;DHT22;12057;52.042;6.830;2022-10-04T03:30:55;10.90;99.90
23755;DHT22;12057;52.042;6.830;2022-10-04T03:35:58;10.80;99.90
23755;DHT22;12057;52.042;6.830;2022-10-04T03:41:00;10.80;99.90
23755;DHT22;12057;52.042;6.830;2022-10-04T03:46:02;10.70;99.90
23755;DHT22;12057;52.042;6.830;2022-10-04T03:51:13;10.60;99.90
23755;DHT22;12057;52.042;6.830;2022-10-04T03:56:19;10.50;99.90
23755;DHT22;12057;52.042;6.830;2022-10-04T04:01:39;10.50;99.90
23755;DHT22;12057;52.042;6.830;2022-10-04T04:07:02;10.50;99.90
23755;DHT22;12057;52.042;6.830;2022-10-04T04:12:12;10.50;99.90
23755;DHT22;12057;52.042;6.830;2022-10-04T04:22:27;10.50;99.90
23755;DHT22;12057;52.042;6.830;2022-10-04T04:27:33;10.50;99.90
23755;DHT22;12057;52.042;6.830;2022-10-04T04:32:41;10.50;99.90
23755;DHT22;12057;52.042;6.830;2022-10-04T04:37:44;10.50;99.90
23755;DHT22;12057;52.042;6.830;2022-10-04T04:42:44;10.50;99.90
23755;DHT22;12057;52.042;6.830;2022-10-04T04:47:53;10.50;99.90
23755;DHT22;12057;52.042;6.830;2022-10-04T04:53:16;10.50;99.90
23755;DHT22;12057;52.042;6.830;2022-10-04T04:58:24;10.40;99.90
23755;DHT22;12057;52.042;6.830;2022-10-04T05:03:25;10.40;99.90
23755;DHT22;12057;52.042;6.830;2022-10-04T05:08:33;10.40;99.90
23755;DHT22;12057;52.042;6.830;2022-10-04T05:13:50;10.40;99.90
23755;DHT22;12057;52.042;6.830;2022-10-04T05:24:23;10.30;99.90
23755;DHT22;12057;52.042;6.830;2022-10-04T05:29:27;10.20;99.90
23755;DHT22;12057;52.042;6.830;2022-10-04T05:34:37;10.20;99.90
23755;DHT22;12057;52.042;6.830;2022-10-04T05:44:56;10.20;99.90
23755;DHT22;12057;52.042;6.830;2022-10-04T05:49:58;10.20;99.90
23755;DHT22;12057;52.042;6.830;2022-10-04T06:00:18;10.10;99.90
23755;DHT22;12057;52.042;6.830;2022-10-04T06:26:52;10.20;99.90
23755;DHT22;12057;52.042;6.830;2022-10-04T06:37:37;10.30;99.90
23755;DHT22;12057;52.042;6.830;2022-10-04T06:43:06;10.40;99.90
23755;DHT22;12057;52.042;6.830;2022-10-04T07:04:18;10.60;99.90
23755;DHT22;12057;52.042;6.830;2022-10-04T07:09:22;10.70;99.90
23755;DHT22;12057;52.042;6.830;2022-10-04T07:14:28;10.80;99.90
23755;DHT22;12057;52.042;6.830;2022-10-04T07:19:54;10.90;99.90
23755;DHT22;12057;52.042;6.830;2022-10-04T07:29:59;11.10;99.90
23755;DHT22;12057;52.042;6.830;2022-10-04T07:35:12;11.20;99.90
23755;DHT22;12057;52.042;6.830;2022-10-04T07:46:14;11.70;99.90
23755;DHT22;12057;52.042;6.830;2022-10-04T08:12:16;12.80;99.90
23755;DHT22;12057;52.042;6.830;2022-10-04T08:17:56;13.00;99.90
23755;DHT22;12057;52.042;6.830;2022-10-04T09:06:57;15.50;99.90
23755;DHT22;12057;52.042;6.830;2022-10-04T09:12:18;15.80;99.90
23755;DHT22;12057;52.042;6.830;2022-10-04T09:17:27;16.00;99.90
23755;DHT22;12057;52.042;6.830;2022-10-04T09:27:57;16.60;99.90
23755;DHT22;12057;52.042;6.830;2022-10-04T09:33:18;16.70;99.90
23755;DHT22;12057;52.042;6.830;2022-10-04T09:49:18;17.30;99.90
23755;DHT22;12057;52.042;6.830;2022-10-04T09:59:57;17.60;99.90
23755;DHT22;12057;52.042;6.830;2022-10-04T10:05:25;17.60;99.90
23755;DHT22;12057;52.042;6.830;2022-10-04T11:26:18;19.40;99.90
23755;DHT22;12057;52.042;6.830;2022-10-04T11:36:38;19.40;99.90
23755;DHT22;12057;52.042;6.830;2022-10-04T11:57:46;20.10;99.90
23755;DHT22;12057;52.042;6.830;2022-10-04T12:03:15;20.30;99.90
23755;DHT22;12057;52.042;6.830;2022-10-04T12:30:00;20.50;99.90
23755;DHT22;12057;52.042;6.830;2022-10-04T13:01:03;20.20;99.90
23755;DHT22;12057;52.042;6.830;2022-10-04T13:12:11;20.50;99.90
23755;DHT22;12057;52.042;6.830;2022-10-04T13:17:23;20.70;99.90
23755;DHT22;12057;52.042;6.830;2022-10-04T13:22:42;20.60;99.90
23755;DHT22;12057;52.042;6.830;2022-10-04T13:34:30;20.20;99.90
23755;DHT22;12057;52.042;6.830;2022-10-04T13:55:31;20.70;99.90
23755;DHT22;12057;52.042;6.830;2022-10-04T14:27:03;19.30;99.90
23755;DHT22;12057;52.042;6.830;2022-10-04T14:54:05;18.40;99.90
23755;DHT22;12057;52.042;6.830;2022-10-04T15:04:56;18.20;99.90
23755;DHT22;12057;52.042;6.830;2022-10-04T15:25:39;17.90;99.90
23755;DHT22;12057;52.042;6.830;2022-10-04T15:31:11;17.80;99.90
23755;DHT22;12057;52.042;6.830;2022-10-04T15:36:41;17.70;99.90
23755;DHT22;12057;52.042;6.830;2022-10-04T15:42:05;17.60;99.90
23755;DHT22;12057;52.042;6.830;2022-10-04T15:58:33;17.30;99.90
23755;DHT22;12057;52.042;6.830;2022-10-04T16:03:44;17.20;99.90
23755;DHT22;12057;52.042;6.830;2022-10-04T16:09:17;17.10;99.90
23755;DHT22;12057;52.042;6.830;2022-10-04T16:19:44;16.90;99.90
23755;DHT22;12057;52.042;6.830;2022-10-04T16:25:28;16.90;99.90
23755;DHT22;12057;52.042;6.830;2022-10-04T16:35:34;16.60;99.90
23755;DHT22;12057;52.042;6.830;2022-10-04T17:17:58;15.40;99.90
23755;DHT22;12057;52.042;6.830;2022-10-04T17:28:33;15.00;99.90
23755;DHT22;12057;52.042;6.830;2022-10-04T17:54:54;14.40;99.90
23755;DHT22;12057;52.042;6.830;2022-10-04T18:00:26;14.30;99.90
23755;DHT22;12057;52.042;6.830;2022-10-04T18:11:00;14.10;99.90
23755;DHT22;12057;52.042;6.830;2022-10-04T18:16:07;14.00;99.90
23755;DHT22;12057;52.042;6.830;2022-10-04T18:21:31;14.00;99.90
23755;DHT22;12057;52.042;6.830;2022-10-04T18:26:32;13.90;99.90
23755;DHT22;12057;52.042;6.830;2022-10-04T18:31:39;13.90;99.90
23755;DHT22;12057;52.042;6.830;2022-10-04T18:42:06;13.80;99.90
23755;DHT22;12057;52.042;6.830;2022-10-04T18:47:28;13.70;99.90
23755;DHT22;12057;52.042;6.830;2022-10-04T18:58:24;13.60;99.90
23755;DHT22;12057;52.042;6.830;2022-10-04T19:03:58;13.50;99.90
23755;DHT22;12057;52.042;6.830;2022-10-04T19:29:48;13.50;99.90
23755;DHT22;12057;52.042;6.830;2022-10-04T19:35:27;13.70;99.90
23755;DHT22;12057;52.042;6.830;2022-10-04T19:46:15;13.70;99.90
23755;DHT22;12057;52.042;6.830;2022-10-04T19:51:44;13.70;99.90
23755;DHT22;12057;52.042;6.830;2022-10-04T19:56:52;13.60;99.90
23755;DHT22;12057;52.042;6.830;2022-10-04T20:01:55;13.60;99.90
23755;DHT22;12057;52.042;6.830;2022-10-04T20:06:58;13.60;99.90
23755;DHT22;12057;52.042;6.830;2022-10-04T20:11:59;13.60;99.90
23755;DHT22;12057;52.042;6.830;2022-10-04T20:17:01;13.60;99.90
23755;DHT22;12057;52.042;6.830;2022-10-04T20:48:19;13.60;99.90
23755;DHT22;12057;52.042;6.830;2022-10-04T20:53:25;13.60;99.90
23755;DHT22;12057;52.042;6.830;2022-10-04T20:58:30;13.60;99.90
23755;DHT22;12057;52.042;6.830;2022-10-04T21:03:32;13.50;99.90
23755;DHT22;12057;52.042;6.830;2022-10-04T21:08:33;13.50;99.90
23755;DHT22;12057;52.042;6.830;2022-10-04T21:18:41;13.50;99.90
23755;DHT22;12057;52.042;6.830;2022-10-04T21:23:41;13.60;99.90
23755;DHT22;12057;52.042;6.830;2022-10-04T21:28:42;13.60;99.90
23755;DHT22;12057;52.042;6.830;2022-10-04T21:33:43;13.50;99.90
23755;DHT22;12057;52.042;6.830;2022-10-04T21:38:44;13.50;99.90
23755;DHT22;12057;52.042;6.830;2022-10-04T21:43:44;13.50;99.90
23755;DHT22;12057;52.042;6.830;2022-10-04T21:48:45;13.50;99.90
23755;DHT22;12057;52.042;6.830;2022-10-04T21:53:46;13.40;99.90
23755;DHT22;12057;52.042;6.830;2022-10-04T21:58:46;13.40;99.90
23755;DHT22;12057;52.042;6.830;2022-10-04T22:03:47;13.30;99.90
23755;DHT22;12057;52.042;6.830;2022-10-04T22:08:48;13.20;99.90
23755;DHT22;12057;52.042;6.830;2022-10-04T22:13:48;13.20;99.90
23755;DHT22;12057;52.042;6.830;2022-10-04T22:18:50;13.20;99.90
23755;DHT22;12057;52.042;6.830;2022-10-04T22:23:51;13.30;99.90
23755;DHT22;12057;52.042;6.830;2022-10-04T22:28:55;13.40;99.90
23755;DHT22;12057;52.042;6.830;2022-10-04T22:33:56;13.50;99.90
23755;DHT22;12057;52.042;6.830;2022-10-04T22:44:53;13.70;99.90
23755;DHT22;12057;52.042;6.830;2022-10-04T22:49:54;13.80;99.90
23755;DHT22;12057;52.042;6.830;2022-10-04T22:54:57;13.80;99.90
23755;DHT22;12057;52.042;6.830;2022-10-04T23:00:01;13.90;99.90
23755;DHT22;12057;52.042;6.830;2022-10-04T23:05:16;13.90;99.90
23755;DHT22;12057;52.042;6.830;2022-10-04T23:10:18;14.00;99.90
23755;DHT22;12057;52.042;6.830;2022-10-04T23:15:19;14.00;99.90
23755;DHT22;12057;52.042;6.830;2022-10-04T23:20:20;14.10;99.90
23755;DHT22;12057;52.042;6.830;2022-10-04T23:25:28;14.10;99.90
23755;DHT22;12057;52.042;6.830;2022-10-04T23:30:29;14.20;99.90
23755;DHT22;12057;52.042;6.830;2022-10-04T23:35:31;14.20;99.90
23755;DHT22;12057;52.042;6.830;2022-10-04T23:40:32;14.20;99.90
23755;DHT22;12057;52.042;6.830;2022-10-04T23:45:33;14.20;99.90
23755;DHT22;12057;52.042;6.830;2022-10-04T23:50:36;14.20;99.90
23755;DHT22;12057;52.042;6.830;2022-10-04T23:55:41;14.20;99.90
